createdAt,value
2018-09-09T00:01:55.805Z,6.20
2018-09-09T00:04:24.339Z,6.47
2018-09-09T00:06:52.821Z,5.40
2018-09-09T00:09:26.564Z,6.10
2018-09-09T00:11:55.318Z,6.00
2018-09-09T00:14:23.836Z,5.90
2018-09-09T00:16:52.423Z,6.17
2018-09-09T00:19:20.994Z,5.83
2018-09-09T00:21:49.757Z,7.67
2018-09-09T00:24:18.223Z,6.73
2018-09-09T00:26:46.787Z,5.67
2018-09-09T00:29:15.333Z,5.97
2018-09-09T00:31:43.968Z,5.87
2018-09-09T00:34:12.501Z,5.40
2018-09-09T00:36:41.068Z,6.10
2018-09-09T00:39:09.648Z,6.27
2018-09-09T00:41:38.149Z,5.93
2018-09-09T00:44:06.701Z,6.13
2018-09-09T00:46:36.251Z,5.73
2018-09-09T00:49:10.196Z,5.53
2018-09-09T00:51:43.962Z,5.77
2018-09-09T00:54:12.521Z,6.23
2018-09-09T00:56:40.951Z,5.70
2018-09-09T00:59:09.487Z,6.17
2018-09-09T01:01:37.943Z,6.27
2018-09-09T01:04:06.485Z,5.83
2018-09-09T01:06:35.023Z,6.23
2018-09-09T01:09:09.097Z,6.47
2018-09-09T01:11:37.632Z,6.00
2018-09-09T01:14:06.221Z,6.63
2018-09-09T01:16:34.802Z,6.40
2018-09-09T01:19:03.378Z,6.43
2018-09-09T01:21:31.854Z,6.20
2018-09-09T01:24:00.439Z,5.97
2018-09-09T01:26:28.861Z,5.80
2018-09-09T01:28:57.417Z,5.83
2018-09-09T01:31:47.526Z,6.17
2018-09-09T01:34:19.764Z,6.17
2018-09-09T01:36:48.240Z,6.37
2018-09-09T01:39:16.721Z,6.00
2018-09-09T01:41:45.210Z,5.27
2018-09-09T01:44:13.733Z,6.03
2018-09-09T01:46:42.248Z,6.20
2018-09-09T01:49:10.856Z,5.63
2018-09-09T01:51:39.317Z,6.07
2018-09-09T01:54:07.954Z,5.30
2018-09-09T01:56:36.542Z,6.20
2018-09-09T01:59:05.240Z,5.13
2018-09-09T02:01:33.682Z,7.13
2018-09-09T02:04:02.170Z,5.63
2018-09-09T02:06:41.453Z,5.70
2018-09-09T02:09:10.032Z,5.70
2018-09-09T02:11:38.573Z,6.97
2018-09-09T02:14:07.036Z,6.27
2018-09-09T02:16:35.524Z,5.97
2018-09-09T02:19:04.009Z,5.60
2018-09-09T02:21:32.482Z,5.50
2018-09-09T02:24:01.363Z,6.13
2018-09-09T02:26:29.844Z,5.60
2018-09-09T02:28:58.336Z,5.70
2018-09-09T02:31:26.836Z,5.87
2018-09-09T02:33:55.280Z,5.80
2018-09-09T02:36:23.970Z,6.03
2018-09-09T02:38:52.484Z,6.40
2018-09-09T02:41:44.693Z,6.67
2018-09-09T02:44:13.126Z,6.40
2018-09-09T02:46:41.801Z,5.60
2018-09-09T02:49:10.460Z,6.00
2018-09-09T02:51:38.951Z,6.00
2018-09-09T02:54:07.435Z,5.07
2018-09-09T02:56:35.953Z,6.00
2018-09-09T02:59:04.488Z,5.43
2018-09-09T03:01:32.969Z,5.70
2018-09-09T03:04:01.455Z,5.10
2018-09-09T03:06:29.938Z,5.30
2018-09-09T03:08:58.403Z,5.80
2018-09-09T03:11:26.917Z,5.23
2018-09-09T03:13:55.347Z,5.67
2018-09-09T03:16:50.274Z,4.60
2018-09-09T03:19:18.769Z,5.37
2018-09-09T03:21:47.562Z,5.30
2018-09-09T03:24:16.053Z,4.67
2018-09-09T03:26:44.629Z,4.93
2018-09-09T03:29:13.187Z,5.00
2018-09-09T03:31:41.737Z,4.60
2018-09-09T03:34:10.251Z,4.50
2018-09-09T03:36:38.774Z,4.93
2018-09-09T03:39:09.398Z,4.80
2018-09-09T03:41:38.222Z,4.80
2018-09-09T03:44:06.926Z,4.60
2018-09-09T03:46:35.658Z,4.73
2018-09-09T03:49:04.164Z,4.60
2018-09-09T03:51:32.713Z,4.50
2018-09-09T03:54:01.139Z,4.67
2018-09-09T03:56:29.715Z,4.67
2018-09-09T03:58:58.166Z,4.47
2018-09-09T04:01:26.742Z,4.07
2018-09-09T04:03:55.244Z,4.87
2018-09-09T04:06:24.225Z,4.43
2018-09-09T04:08:52.736Z,4.50
2018-09-09T04:11:21.285Z,4.20
2018-09-09T04:13:49.701Z,4.40
2018-09-09T04:16:18.250Z,4.57
2018-09-09T04:18:46.789Z,4.73
2018-09-09T04:21:15.302Z,4.80
2018-09-09T04:23:43.716Z,4.70
2018-09-09T04:26:12.156Z,4.73
2018-09-09T04:28:40.645Z,4.53
2018-09-09T04:31:09.130Z,4.80
2018-09-09T04:33:37.622Z,4.40
2018-09-09T04:36:06.095Z,4.20
2018-09-09T04:38:34.589Z,4.53
2018-09-09T04:41:03.117Z,4.87
2018-09-09T04:43:31.590Z,5.30
2018-09-09T04:46:00.168Z,4.50
2018-09-09T04:48:28.735Z,4.37
2018-09-09T04:50:57.295Z,4.80
2018-09-09T04:53:25.733Z,4.90
2018-09-09T04:55:54.274Z,4.43
2018-09-09T04:58:22.962Z,4.47
2018-09-09T05:00:51.441Z,4.90
2018-09-09T05:03:20.780Z,4.37
2018-09-09T05:05:49.216Z,4.57
2018-09-09T05:08:17.722Z,6.23
2018-09-09T05:10:46.164Z,4.93
2018-09-09T05:13:14.882Z,5.77
2018-09-09T05:15:43.566Z,5.13
2018-09-09T05:18:12.529Z,4.83
2018-09-09T05:20:41.028Z,5.17
2018-09-09T05:23:09.509Z,5.37
2018-09-09T05:25:38.011Z,5.60
2018-09-09T05:28:06.528Z,5.33
2018-09-09T05:30:35.056Z,5.13
2018-09-09T05:33:03.590Z,5.27
2018-09-09T05:35:32.029Z,5.03
2018-09-09T05:38:00.604Z,5.30
2018-09-09T05:40:29.245Z,5.20
2018-09-09T05:42:57.767Z,5.60
2018-09-09T05:45:26.314Z,5.60
2018-09-09T05:47:54.840Z,5.67
2018-09-09T05:50:23.332Z,4.90
2018-09-09T05:52:51.805Z,5.93
2018-09-09T05:55:20.297Z,5.90
2018-09-09T05:57:48.814Z,6.00
2018-09-09T06:00:21.046Z,5.47
2018-09-09T06:02:50.543Z,5.53
2018-09-09T06:05:19.257Z,5.67
2018-09-09T06:07:47.865Z,5.80
2018-09-09T06:10:16.316Z,6.03
2018-09-09T06:12:44.953Z,5.87
2018-09-09T06:15:13.525Z,6.10
2018-09-09T06:17:41.962Z,5.33
2018-09-09T06:20:10.452Z,5.70
2018-09-09T06:22:38.911Z,5.30
2018-09-09T06:25:07.411Z,5.13
2018-09-09T06:27:36.085Z,5.80
2018-09-09T06:30:17.981Z,6.10
2018-09-09T06:32:46.532Z,5.70
2018-09-09T06:35:15.050Z,5.43
2018-09-09T06:37:56.742Z,5.90
2018-09-09T06:40:25.213Z,6.23
2018-09-09T06:42:53.849Z,5.33
2018-09-09T06:45:22.501Z,6.30
2018-09-09T06:47:51.072Z,5.47
2018-09-09T06:50:19.563Z,5.30
2018-09-09T06:52:48.069Z,5.67
2018-09-09T06:55:16.535Z,5.80
2018-09-09T06:57:45.122Z,5.33
2018-09-09T07:00:13.623Z,4.53
2018-09-09T07:02:42.152Z,5.50
2018-09-09T07:05:10.697Z,5.07
2018-09-09T07:07:39.241Z,4.70
2018-09-09T07:10:07.727Z,5.30
2018-09-09T07:12:36.295Z,5.43
2018-09-09T07:15:04.898Z,4.40
2018-09-09T07:17:33.376Z,5.00
2018-09-09T07:20:01.847Z,5.20
2018-09-09T07:22:30.441Z,4.50
2018-09-09T07:24:58.953Z,5.10
2018-09-09T07:27:27.421Z,4.80
2018-09-09T07:29:55.985Z,5.47
2018-09-09T07:32:24.452Z,4.37
2018-09-09T07:34:52.972Z,5.07
2018-09-09T07:37:21.515Z,4.70
2018-09-09T07:39:49.936Z,4.63
2018-09-09T07:42:18.375Z,5.03
2018-09-09T07:44:47.689Z,4.53
2018-09-09T07:47:16.153Z,5.13
2018-09-09T07:49:44.657Z,4.80
2018-09-09T07:52:13.167Z,4.70
2018-09-09T07:54:41.831Z,4.60
2018-09-09T07:57:10.416Z,4.03
2018-09-09T07:59:38.888Z,4.37
2018-09-09T08:02:07.653Z,4.27
2018-09-09T08:04:36.465Z,4.40
2018-09-09T08:07:05.067Z,4.37
2018-09-09T08:09:33.734Z,4.13
2018-09-09T08:12:02.281Z,3.90
2018-09-09T08:14:30.899Z,3.83
2018-09-09T08:16:59.363Z,4.20
2018-09-09T08:19:27.928Z,3.83
2018-09-09T08:21:57.048Z,4.07
2018-09-09T08:24:25.572Z,4.10
2018-09-09T08:26:54.133Z,3.10
2018-09-09T08:29:22.709Z,3.10
2018-09-09T08:31:51.207Z,3.63
2018-09-09T08:34:19.733Z,3.40
2018-09-09T08:36:48.280Z,3.53
2018-09-09T08:39:16.844Z,2.80
2018-09-09T08:41:45.392Z,2.80
2018-09-09T08:44:13.923Z,3.27
2018-09-09T08:46:42.410Z,2.80
2018-09-09T08:49:10.912Z,3.10
2018-09-09T08:51:39.468Z,2.83
2018-09-09T08:54:07.996Z,2.30
2018-09-09T08:56:36.520Z,3.10
2018-09-09T08:59:05.211Z,3.53
2018-09-09T09:01:33.634Z,3.27
2018-09-09T09:04:02.080Z,3.80
2018-09-09T09:06:30.574Z,3.10
2018-09-09T09:09:01.182Z,3.20
2018-09-09T09:11:29.795Z,3.20
2018-09-09T09:13:58.261Z,2.60
2018-09-09T09:16:26.698Z,3.03
2018-09-09T09:18:55.152Z,2.83
2018-09-09T09:21:23.641Z,2.93
2018-09-09T09:23:52.104Z,3.07
2018-09-09T09:26:20.672Z,3.00
2018-09-09T09:28:49.278Z,2.80
2018-09-09T09:31:17.853Z,2.80
2018-09-09T09:33:46.473Z,2.50
2018-09-09T09:36:15.125Z,2.57
2018-09-09T09:38:43.582Z,3.23
2018-09-09T09:41:12.501Z,2.83
2018-09-09T09:43:40.962Z,3.13
2018-09-09T09:46:09.478Z,2.70
2018-09-09T09:48:37.959Z,2.40
2018-09-09T09:51:06.548Z,2.60
2018-09-09T09:53:35.118Z,2.07
2018-09-09T09:56:03.617Z,1.97
2018-09-09T09:58:32.134Z,2.00
2018-09-09T10:01:01.661Z,2.77
2018-09-09T10:03:30.147Z,1.90
2018-09-09T10:05:58.832Z,1.93
2018-09-09T10:08:27.246Z,2.50
2018-09-09T10:10:55.836Z,2.17
2018-09-09T10:13:24.577Z,2.07
2018-09-09T10:15:53.114Z,2.13
2018-09-09T10:18:21.693Z,2.10
2018-09-09T10:20:50.219Z,2.50
2018-09-09T10:23:18.705Z,2.20
2018-09-09T10:25:47.258Z,1.90
2018-09-09T10:28:15.781Z,1.60
2018-09-09T10:30:45.295Z,1.83
2018-09-09T10:33:13.865Z,1.90
2018-09-09T10:35:42.336Z,1.80
2018-09-09T10:38:10.834Z,1.70
2018-09-09T10:40:39.276Z,1.97
2018-09-09T10:43:07.828Z,1.63
2018-09-09T10:45:36.383Z,2.43
2018-09-09T10:48:04.998Z,2.00
2018-09-09T10:50:35.805Z,2.00
2018-09-09T10:53:04.354Z,1.87
2018-09-09T10:55:32.863Z,1.90
2018-09-09T10:58:01.337Z,1.97
2018-09-09T11:00:29.821Z,2.23
2018-09-09T11:02:58.303Z,2.20
2018-09-09T11:05:27.001Z,3.03
2018-09-09T11:07:55.638Z,2.07
2018-09-09T11:10:24.100Z,3.27
2018-09-09T11:12:52.555Z,1.90
2018-09-09T11:15:21.172Z,2.03
2018-09-09T11:17:49.795Z,2.20
2018-09-09T11:20:18.389Z,1.93
2018-09-09T11:22:46.889Z,2.50
2018-09-09T11:25:15.361Z,2.57
2018-09-09T11:27:43.922Z,2.20
2018-09-09T11:30:12.656Z,2.23
2018-09-09T11:32:41.231Z,2.00
2018-09-09T11:35:09.830Z,2.47
2018-09-09T11:37:38.366Z,1.80
2018-09-09T11:40:07.584Z,1.57
2018-09-09T11:42:36.375Z,1.20
2018-09-09T11:45:04.937Z,2.20
2018-09-09T11:47:33.532Z,1.70
2018-09-09T11:50:02.054Z,1.93
2018-09-09T11:52:31.024Z,2.10
2018-09-09T11:54:59.794Z,1.83
2018-09-09T11:57:28.296Z,1.60
2018-09-09T11:59:57.348Z,1.30
2018-09-09T12:02:25.891Z,1.80
2018-09-09T12:04:54.564Z,1.70
2018-09-09T12:07:23.310Z,1.60
2018-09-09T12:09:51.832Z,1.90
2018-09-09T12:12:20.648Z,1.50
2018-09-09T12:14:49.168Z,2.07
2018-09-09T12:17:17.684Z,1.50
2018-09-09T12:19:46.269Z,1.60
2018-09-09T12:22:15.053Z,1.60
2018-09-09T12:24:43.519Z,1.73
2018-09-09T12:27:12.006Z,1.50
2018-09-09T12:29:40.644Z,1.73
2018-09-09T12:32:09.204Z,1.73
2018-09-09T12:34:37.869Z,2.00
2018-09-09T12:37:06.458Z,1.90
2018-09-09T12:39:34.936Z,1.60
2018-09-09T12:42:03.521Z,1.90
2018-09-09T12:45:08.283Z,1.80
2018-09-09T12:47:42.053Z,1.53
2018-09-09T12:50:10.549Z,1.90
2018-09-09T12:52:39.344Z,1.80
2018-09-09T12:55:08.041Z,1.57
2018-09-09T12:57:36.646Z,2.63
2018-09-09T13:00:05.675Z,2.23
2018-09-09T13:02:34.228Z,1.47
2018-09-09T13:05:02.757Z,2.00
2018-09-09T13:07:31.598Z,1.80
2018-09-09T13:10:00.169Z,1.67
2018-09-09T13:12:32.767Z,1.63
2018-09-09T13:15:01.286Z,1.73
2018-09-09T13:17:29.822Z,1.77
2018-09-09T13:19:58.775Z,1.60
2018-09-09T13:22:27.340Z,1.57
2018-09-09T13:24:55.897Z,1.63
2018-09-09T13:27:24.426Z,1.77
2018-09-09T13:29:52.878Z,1.87
2018-09-09T13:32:21.590Z,1.60
2018-09-09T13:34:50.261Z,1.83
2018-09-09T13:37:26.207Z,2.00
2018-09-09T13:40:00.505Z,1.33
2018-09-09T13:42:28.945Z,1.67
2018-09-09T13:44:57.518Z,1.47
2018-09-09T13:47:26.237Z,1.57
2018-09-09T13:49:54.830Z,1.40
2018-09-09T13:52:23.383Z,2.13
2018-09-09T13:54:51.947Z,1.60
2018-09-09T13:57:20.519Z,1.43
2018-09-09T13:59:49.008Z,1.60
2018-09-09T14:02:17.485Z,2.00
2018-09-09T14:04:46.067Z,1.87
2018-09-09T14:07:14.556Z,1.50
2018-09-09T14:09:43.303Z,1.37
2018-09-09T14:12:11.875Z,1.83
2018-09-09T14:14:40.429Z,1.60
2018-09-09T14:17:09.069Z,1.33
2018-09-09T14:19:37.622Z,1.47
2018-09-09T14:22:06.210Z,1.77
2018-09-09T14:24:34.724Z,1.70
2018-09-09T14:27:03.232Z,1.80
2018-09-09T14:29:31.762Z,1.67
2018-09-09T14:32:00.354Z,1.77
2018-09-09T14:34:28.821Z,2.00
2018-09-09T14:36:57.359Z,1.40
2018-09-09T14:42:40.377Z,1.63
2018-09-09T14:45:08.927Z,1.20
2018-09-09T14:47:37.365Z,1.30
2018-09-09T14:50:06.009Z,1.40
2018-09-09T14:52:34.460Z,1.00
2018-09-09T14:55:03.624Z,1.10
2018-09-09T14:57:32.130Z,1.30
2018-09-09T15:00:00.737Z,1.67
2018-09-09T15:02:29.431Z,1.60
2018-09-09T15:04:57.977Z,1.60
2018-09-09T15:07:27.248Z,1.77
2018-09-09T15:09:55.702Z,1.30
2018-09-09T15:12:24.235Z,1.13
2018-09-09T15:14:52.660Z,1.37
2018-09-09T15:17:21.229Z,1.27
2018-09-09T15:19:49.989Z,1.30
2018-09-09T15:22:18.456Z,1.20
2018-09-09T15:24:46.932Z,1.73
2018-09-09T15:27:15.644Z,0.80
2018-09-09T15:29:44.220Z,1.50
2018-09-09T15:32:12.696Z,1.30
2018-09-09T15:34:41.286Z,1.50
2018-09-09T15:37:09.851Z,1.13
2018-09-09T15:39:38.371Z,1.73
2018-09-09T15:42:07.020Z,1.37
2018-09-09T15:44:35.609Z,1.40
2018-09-09T15:47:04.104Z,1.23
2018-09-09T15:49:32.654Z,1.50
2018-09-09T15:52:03.365Z,1.40
2018-09-09T15:54:31.784Z,1.30
2018-09-09T15:57:00.274Z,1.80
2018-09-09T15:59:28.860Z,1.47
2018-09-09T16:01:57.313Z,1.97
2018-09-09T16:04:25.817Z,1.87
2018-09-09T16:06:54.376Z,1.10
2018-09-09T16:09:22.974Z,1.20
2018-09-09T16:11:51.551Z,1.13
2018-09-09T16:14:20.046Z,1.40
2018-09-09T16:16:48.481Z,1.17
2018-09-09T16:19:16.952Z,1.37
2018-09-09T16:21:45.689Z,1.13
2018-09-09T16:24:14.195Z,0.77
2018-09-09T16:26:42.771Z,1.33
2018-09-09T16:29:11.377Z,1.50
2018-09-09T16:31:39.933Z,1.20
2018-09-09T16:34:08.411Z,1.10
2018-09-09T16:36:36.874Z,1.30
2018-09-09T16:39:06.736Z,1.50
2018-09-09T16:41:41.425Z,1.17
2018-09-09T16:44:10.062Z,1.47
2018-09-09T16:46:38.702Z,1.50
2018-09-09T16:49:07.186Z,1.20
2018-09-09T16:51:35.753Z,1.53
2018-09-09T16:54:04.291Z,1.30
2018-09-09T16:56:32.835Z,1.43
2018-09-09T16:59:01.276Z,1.40
2018-09-09T17:01:29.783Z,1.60
2018-09-09T17:03:58.247Z,1.43
2018-09-09T17:06:26.752Z,1.40
2018-09-09T17:08:55.318Z,1.50
2018-09-09T17:11:23.911Z,1.50
2018-09-09T17:13:52.439Z,1.43
2018-09-09T17:16:20.990Z,1.40
2018-09-09T17:18:49.606Z,1.40
2018-09-09T17:21:18.061Z,1.40
2018-09-09T17:23:46.629Z,1.30
2018-09-09T17:26:15.214Z,1.40
2018-09-09T17:28:43.695Z,1.20
2018-09-09T17:31:12.185Z,1.30
2018-09-09T17:33:40.628Z,2.30
2018-09-09T17:36:09.342Z,1.30
2018-09-09T17:39:12.970Z,1.83
2018-09-09T17:41:41.488Z,1.20
2018-09-09T17:44:09.976Z,1.17
2018-09-09T17:46:38.507Z,1.97
2018-09-09T17:49:12.772Z,1.80
2018-09-09T17:51:41.345Z,1.63
2018-09-09T17:54:09.939Z,1.37
2018-09-09T17:56:38.462Z,1.50
2018-09-09T17:59:07.223Z,1.40
2018-09-09T18:01:35.771Z,1.50
2018-09-09T18:10:47.450Z,1.97
2018-09-09T18:16:58.988Z,1.60
2018-09-09T18:19:27.487Z,2.00
2018-09-09T18:21:56.311Z,1.90
2018-09-09T18:24:24.881Z,1.87
2018-09-09T18:26:53.480Z,2.07
2018-09-09T18:33:15.990Z,1.80
2018-09-09T18:35:45.129Z,2.10
2018-09-09T18:38:14.633Z,2.00
2018-09-09T18:40:43.592Z,1.90
2018-09-09T18:43:12.389Z,1.80
2018-09-09T18:45:41.001Z,2.30
2018-09-09T18:48:09.798Z,2.00
2018-09-09T18:50:38.244Z,1.73
2018-09-09T18:53:06.982Z,2.20
2018-09-09T18:55:35.550Z,1.50
2018-09-09T18:58:04.122Z,1.80
2018-09-09T19:00:33.614Z,1.60
2018-09-09T19:03:02.213Z,1.70
2018-09-09T19:05:30.965Z,2.33
2018-09-09T19:07:59.610Z,2.03
2018-09-09T19:10:28.288Z,1.90
2018-09-09T19:12:56.948Z,1.73
2018-09-09T19:15:40.730Z,1.93
2018-09-09T19:18:09.267Z,2.00
2018-09-09T19:20:37.791Z,1.97
2018-09-09T19:23:19.039Z,2.00
2018-09-09T19:25:48.917Z,2.20
2018-09-09T19:28:17.535Z,2.13
2018-09-09T19:30:46.152Z,1.97
2018-09-09T19:33:14.692Z,2.30
2018-09-09T19:35:43.308Z,2.33
2018-09-09T19:38:11.748Z,1.80
2018-09-09T19:44:02.475Z,1.80
2018-09-09T19:46:31.225Z,2.23
2018-09-09T19:48:59.823Z,2.40
2018-09-09T19:51:28.480Z,1.70
2018-09-09T19:53:57.129Z,2.03
2018-09-09T19:56:25.679Z,2.20
2018-09-09T19:58:54.198Z,2.40
2018-09-09T20:01:22.814Z,1.93
2018-09-09T20:03:51.369Z,1.67
2018-09-09T20:13:11.411Z,2.03
2018-09-09T20:15:40.360Z,2.10
2018-09-09T20:18:08.974Z,2.50
2018-09-09T20:20:37.434Z,1.97
2018-09-09T20:23:06.202Z,2.40
2018-09-09T20:25:34.863Z,2.37
2018-09-09T20:28:03.358Z,2.23
2018-09-09T20:30:31.881Z,2.40
2018-09-09T20:33:00.337Z,1.97
2018-09-09T20:35:28.831Z,2.20
2018-09-09T20:37:57.307Z,2.23
2018-09-09T20:40:38.796Z,2.37
2018-09-09T20:43:07.275Z,2.37
2018-09-09T20:45:35.754Z,2.70
2018-09-09T20:48:04.340Z,2.60
2018-09-09T20:50:32.819Z,1.90
2018-09-09T20:53:01.372Z,2.33
2018-09-09T20:55:29.847Z,2.20
2018-09-09T20:58:01.721Z,2.27
2018-09-09T21:00:30.208Z,2.23
2018-09-09T21:02:58.732Z,2.50
2018-09-09T21:05:27.576Z,2.60
2018-09-09T21:07:56.042Z,2.33
2018-09-09T21:10:24.539Z,2.37
2018-09-09T21:12:53.045Z,3.03
2018-09-09T21:15:21.503Z,2.77
2018-09-09T21:17:50.037Z,2.50
2018-09-09T21:20:18.499Z,2.50
2018-09-09T21:22:46.982Z,2.73
2018-09-09T21:25:15.452Z,2.60
2018-09-09T21:28:09.624Z,2.37
2018-09-09T21:30:38.111Z,2.60
2018-09-09T21:33:06.846Z,2.33
2018-09-09T21:35:35.392Z,2.50
2018-09-09T21:38:03.864Z,2.47
2018-09-09T21:40:32.414Z,2.77
2018-09-09T21:43:00.902Z,2.40
2018-09-09T21:45:29.382Z,2.23
2018-09-09T21:47:57.842Z,2.47
2018-09-09T21:50:26.387Z,2.67
2018-09-09T21:52:55.097Z,2.50
2018-09-09T21:56:10.560Z,2.00
2018-09-09T21:58:39.049Z,2.97
2018-09-09T22:01:12.692Z,2.37
2018-09-09T22:03:41.130Z,2.43
2018-09-09T22:06:09.804Z,2.13
2018-09-09T22:08:38.311Z,2.53
2018-09-09T22:11:06.943Z,2.13
2018-09-09T22:13:35.615Z,3.10
2018-09-09T22:16:04.163Z,1.90
2018-09-09T22:18:32.580Z,2.60
2018-09-09T22:21:01.240Z,2.10
2018-09-09T22:23:29.712Z,2.17
2018-09-09T22:25:58.553Z,3.07
2018-09-09T22:28:27.225Z,1.97
2018-09-09T22:30:55.652Z,1.97
2018-09-09T22:33:24.091Z,2.30
2018-09-09T22:35:52.552Z,2.07
2018-09-09T22:38:21.582Z,2.10
2018-09-09T22:40:50.022Z,2.80
2018-09-09T22:43:20.283Z,2.40
2018-09-09T22:45:50.944Z,1.97
2018-09-09T22:48:20.236Z,2.07
2018-09-09T22:50:49.174Z,2.23
2018-09-09T22:53:17.833Z,2.10
2018-09-09T22:55:46.253Z,2.13
2018-09-09T22:58:14.709Z,2.13
2018-09-09T23:00:43.203Z,2.87
2018-09-09T23:03:12.086Z,2.43
2018-09-09T23:05:40.686Z,2.27
2018-09-09T23:08:09.068Z,2.67
2018-09-09T23:10:37.512Z,1.93
2018-09-09T23:13:08.165Z,2.20
2018-09-09T23:15:36.844Z,2.90
2018-09-09T23:18:12.700Z,2.27
2018-09-09T23:20:41.192Z,2.20
2018-09-09T23:23:09.660Z,2.87
2018-09-09T23:25:38.089Z,2.80
2018-09-09T23:28:06.634Z,2.73
2018-09-09T23:30:35.103Z,2.63
2018-09-09T23:33:03.584Z,3.20
2018-09-09T23:35:32.169Z,2.97
2018-09-09T23:38:00.804Z,2.83
2018-09-09T23:40:29.375Z,3.30
2018-09-09T23:42:57.852Z,3.10
2018-09-09T23:45:26.295Z,3.10
2018-09-09T23:47:54.805Z,3.60
2018-09-09T23:50:23.293Z,2.53
2018-09-09T23:52:51.717Z,2.93
2018-09-09T23:55:20.227Z,2.63
2018-09-09T23:57:48.734Z,3.33
